sensor_id;sensor_type;location;lat;lon;timestamp;pressure;altitude;pressure_sealevel;temperature;humidity
64967;BME280;51710;38.732;-121.358;2023-07-24T00:02:09;100255.00;;;39.24;26.75
64967;BME280;51710;38.732;-121.358;2023-07-24T00:04:35;100254.09;;;39.20;26.40
64967;BME280;51710;38.732;-121.358;2023-07-24T00:07:02;100242.94;;;39.20;26.19
64967;BME280;51710;38.732;-121.358;2023-07-24T00:09:29;100251.78;;;39.22;25.89
64967;BME280;51710;38.732;-121.358;2023-07-24T00:11:55;100246.19;;;39.22;25.74
64967;BME280;51710;38.732;-121.358;2023-07-24T00:14:21;100244.66;;;39.25;25.68
64967;BME280;51710;38.732;-121.358;2023-07-24T00:16:47;100249.44;;;39.24;24.92
64967;BME280;51710;38.732;-121.358;2023-07-24T00:19:14;100243.03;;;39.24;24.95
64967;BME280;51710;38.732;-121.358;2023-07-24T00:21:40;100237.84;;;39.22;25.33
64967;BME280;51710;38.732;-121.358;2023-07-24T00:24:06;100237.38;;;39.20;24.46
64967;BME280;51710;38.732;-121.358;2023-07-24T00:26:33;100237.66;;;39.15;24.50
64967;BME280;51710;38.732;-121.358;2023-07-24T00:29:00;100244.38;;;39.14;24.38
64967;BME280;51710;38.732;-121.358;2023-07-24T00:31:26;100242.41;;;39.15;23.51
64967;BME280;51710;38.732;-121.358;2023-07-24T00:33:53;100244.38;;;39.14;23.95
64967;BME280;51710;38.732;-121.358;2023-07-24T00:36:20;100240.34;;;39.12;23.90
64967;BME280;51710;38.732;-121.358;2023-07-24T00:38:46;100239.53;;;39.11;24.19
64967;BME280;51710;38.732;-121.358;2023-07-24T00:41:12;100242.22;;;39.08;23.91
64967;BME280;51710;38.732;-121.358;2023-07-24T00:43:38;100242.81;;;39.01;24.02
64967;BME280;51710;38.732;-121.358;2023-07-24T00:46:05;100246.16;;;38.91;24.20
64967;BME280;51710;38.732;-121.358;2023-07-24T00:48:31;100251.06;;;38.82;24.75
64967;BME280;51710;38.732;-121.358;2023-07-24T00:50:57;100252.28;;;38.69;24.75
64967;BME280;51710;38.732;-121.358;2023-07-24T00:53:24;100243.75;;;38.62;25.19
64967;BME280;51710;38.732;-121.358;2023-07-24T00:55:50;100254.31;;;38.57;24.57
64967;BME280;51710;38.732;-121.358;2023-07-24T00:58:17;100250.25;;;38.54;24.64
64967;BME280;51710;38.732;-121.358;2023-07-24T01:00:44;100265.59;;;38.48;23.76
64967;BME280;51710;38.732;-121.358;2023-07-24T01:03:10;100261.09;;;38.44;23.97
64967;BME280;51710;38.732;-121.358;2023-07-24T01:05:38;100265.31;;;38.38;24.13
64967;BME280;51710;38.732;-121.358;2023-07-24T01:08:04;100259.53;;;38.31;24.83
64967;BME280;51710;38.732;-121.358;2023-07-24T01:10:31;100250.97;;;38.23;24.73
64967;BME280;51710;38.732;-121.358;2023-07-24T01:13:11;100254.78;;;38.19;25.06
64967;BME280;51710;38.732;-121.358;2023-07-24T01:15:45;100258.97;;;38.13;24.80
64967;BME280;51710;38.732;-121.358;2023-07-24T01:18:16;100261.28;;;38.11;24.51
64967;BME280;51710;38.732;-121.358;2023-07-24T01:20:48;100264.44;;;38.09;24.47
64967;BME280;51710;38.732;-121.358;2023-07-24T01:23:40;100270.56;;;38.03;24.01
64967;BME280;51710;38.732;-121.358;2023-07-24T01:26:12;100275.25;;;37.99;24.47
64967;BME280;51710;38.732;-121.358;2023-07-24T01:28:39;100282.19;;;37.93;24.52
64967;BME280;51710;38.732;-121.358;2023-07-24T01:31:05;100281.25;;;37.89;24.85
64967;BME280;51710;38.732;-121.358;2023-07-24T01:33:32;100282.78;;;37.86;24.27
64967;BME280;51710;38.732;-121.358;2023-07-24T01:36:02;100285.09;;;37.84;24.18
64967;BME280;51710;38.732;-121.358;2023-07-24T01:38:34;100278.50;;;37.77;24.41
64967;BME280;51710;38.732;-121.358;2023-07-24T01:41:02;100283.34;;;37.68;24.61
64967;BME280;51710;38.732;-121.358;2023-07-24T01:43:30;100281.13;;;37.61;25.38
64967;BME280;51710;38.732;-121.358;2023-07-24T01:45:58;100273.84;;;37.57;25.29
64967;BME280;51710;38.732;-121.358;2023-07-24T01:48:24;100280.78;;;37.51;25.58
64967;BME280;51710;38.732;-121.358;2023-07-24T01:50:51;100273.84;;;37.45;25.66
64967;BME280;51710;38.732;-121.358;2023-07-24T01:53:17;100281.25;;;37.41;26.07
64967;BME280;51710;38.732;-121.358;2023-07-24T01:55:43;100294.22;;;37.37;25.90
64967;BME280;51710;38.732;-121.358;2023-07-24T01:58:10;100297.69;;;37.34;25.79
64967;BME280;51710;38.732;-121.358;2023-07-24T02:00:36;100303.25;;;37.34;26.02
64967;BME280;51710;38.732;-121.358;2023-07-24T02:03:02;100294.66;;;37.27;25.40
64967;BME280;51710;38.732;-121.358;2023-07-24T02:05:29;100291.28;;;37.21;25.24
64967;BME280;51710;38.732;-121.358;2023-07-24T02:07:56;100298.81;;;37.20;25.95
64967;BME280;51710;38.732;-121.358;2023-07-24T02:10:22;100296.75;;;37.30;26.04
64967;BME280;51710;38.732;-121.358;2023-07-24T02:12:49;100284.97;;;37.57;25.85
64967;BME280;51710;38.732;-121.358;2023-07-24T02:15:15;100301.78;;;37.96;25.75
64967;BME280;51710;38.732;-121.358;2023-07-24T02:17:41;100300.41;;;38.02;25.25
64967;BME280;51710;38.732;-121.358;2023-07-24T02:20:08;100288.09;;;37.91;26.27
64967;BME280;51710;38.732;-121.358;2023-07-24T02:22:34;100303.78;;;37.72;25.95
64967;BME280;51710;38.732;-121.358;2023-07-24T02:25:01;100294.81;;;37.54;25.73
64967;BME280;51710;38.732;-121.358;2023-07-24T02:27:30;100293.44;;;37.36;26.61
64967;BME280;51710;38.732;-121.358;2023-07-24T02:29:57;100305.03;;;37.17;26.02
64967;BME280;51710;38.732;-121.358;2023-07-24T02:32:23;100307.63;;;36.90;26.31
64967;BME280;51710;38.732;-121.358;2023-07-24T02:34:51;100305.44;;;36.63;26.32
64967;BME280;51710;38.732;-121.358;2023-07-24T02:37:18;100317.06;;;36.36;27.16
64967;BME280;51710;38.732;-121.358;2023-07-24T02:39:45;100318.56;;;36.04;27.50
64967;BME280;51710;38.732;-121.358;2023-07-24T02:42:11;100334.19;;;35.88;27.17
64967;BME280;51710;38.732;-121.358;2023-07-24T02:44:38;100323.19;;;35.62;27.58
64967;BME280;51710;38.732;-121.358;2023-07-24T02:47:04;100322.94;;;35.47;27.67
64967;BME280;51710;38.732;-121.358;2023-07-24T02:49:31;100319.84;;;35.31;28.23
64967;BME280;51710;38.732;-121.358;2023-07-24T02:51:57;100328.56;;;35.12;27.47
64967;BME280;51710;38.732;-121.358;2023-07-24T02:54:25;100342.44;;;34.95;27.62
64967;BME280;51710;38.732;-121.358;2023-07-24T02:56:52;100345.34;;;34.82;27.60
64967;BME280;51710;38.732;-121.358;2023-07-24T02:59:18;100355.16;;;34.62;28.24
64967;BME280;51710;38.732;-121.358;2023-07-24T03:01:45;100354.00;;;34.46;28.60
64967;BME280;51710;38.732;-121.358;2023-07-24T03:04:11;100346.78;;;34.28;28.83
64967;BME280;51710;38.732;-121.358;2023-07-24T03:06:39;100349.00;;;34.09;29.01
64967;BME280;51710;38.732;-121.358;2023-07-24T03:09:06;100356.63;;;33.95;29.79
64967;BME280;51710;38.732;-121.358;2023-07-24T03:11:32;100352.47;;;33.75;30.08
64967;BME280;51710;38.732;-121.358;2023-07-24T03:13:58;100356.34;;;33.66;29.75
64967;BME280;51710;38.732;-121.358;2023-07-24T03:16:25;100360.22;;;33.56;30.66
64967;BME280;51710;38.732;-121.358;2023-07-24T03:18:51;100356.91;;;33.46;30.00
64967;BME280;51710;38.732;-121.358;2023-07-24T03:21:19;100359.38;;;33.34;30.41
64967;BME280;51710;38.732;-121.358;2023-07-24T03:23:45;100360.94;;;33.18;30.81
64967;BME280;51710;38.732;-121.358;2023-07-24T03:26:12;100363.47;;;33.06;30.95
64967;BME280;51710;38.732;-121.358;2023-07-24T03:28:38;100367.91;;;32.93;31.12
64967;BME280;51710;38.732;-121.358;2023-07-24T03:31:04;100370.69;;;32.79;31.49
64967;BME280;51710;38.732;-121.358;2023-07-24T03:33:31;100371.75;;;32.70;31.63
64967;BME280;51710;38.732;-121.358;2023-07-24T03:35:57;100376.19;;;32.57;32.10
64967;BME280;51710;38.732;-121.358;2023-07-24T03:38:23;100379.16;;;32.47;32.33
64967;BME280;51710;38.732;-121.358;2023-07-24T03:40:50;100387.66;;;32.37;31.68
64967;BME280;51710;38.732;-121.358;2023-07-24T03:43:16;100387.38;;;32.25;32.38
64967;BME280;51710;38.732;-121.358;2023-07-24T03:45:42;100393.06;;;32.15;32.62
64967;BME280;51710;38.732;-121.358;2023-07-24T03:48:09;100395.53;;;32.03;32.68
64967;BME280;51710;38.732;-121.358;2023-07-24T03:50:35;100401.25;;;31.93;32.69
64967;BME280;51710;38.732;-121.358;2023-07-24T03:53:02;100399.72;;;31.87;32.85
64967;BME280;51710;38.732;-121.358;2023-07-24T03:55:28;100404.09;;;31.74;33.10
64967;BME280;51710;38.732;-121.358;2023-07-24T03:57:54;100411.41;;;31.65;33.31
64967;BME280;51710;38.732;-121.358;2023-07-24T04:00:21;100405.88;;;31.52;33.26
64967;BME280;51710;38.732;-121.358;2023-07-24T04:02:47;100413.00;;;31.39;33.40
64967;BME280;51710;38.732;-121.358;2023-07-24T04:05:13;100423.63;;;31.27;33.79
64967;BME280;51710;38.732;-121.358;2023-07-24T04:07:40;100435.13;;;31.16;34.17
64967;BME280;51710;38.732;-121.358;2023-07-24T04:10:07;100436.41;;;31.05;33.91
64967;BME280;51710;38.732;-121.358;2023-07-24T04:12:33;100434.06;;;30.93;33.77
64967;BME280;51710;38.732;-121.358;2023-07-24T04:14:59;100441.69;;;30.82;34.03
64967;BME280;51710;38.732;-121.358;2023-07-24T04:17:25;100441.00;;;30.72;34.09
64967;BME280;51710;38.732;-121.358;2023-07-24T04:19:52;100446.84;;;30.65;34.21
64967;BME280;51710;38.732;-121.358;2023-07-24T04:22:18;100454.09;;;30.56;34.55
64967;BME280;51710;38.732;-121.358;2023-07-24T04:24:44;100452.03;;;30.48;34.50
64967;BME280;51710;38.732;-121.358;2023-07-24T04:27:10;100457.38;;;30.40;34.48
64967;BME280;51710;38.732;-121.358;2023-07-24T04:29:37;100461.03;;;30.30;34.56
64967;BME280;51710;38.732;-121.358;2023-07-24T04:32:03;100457.56;;;30.25;34.75
64967;BME280;51710;38.732;-121.358;2023-07-24T04:34:29;100460.91;;;30.17;34.86
64967;BME280;51710;38.732;-121.358;2023-07-24T04:36:56;100470.66;;;30.04;34.79
64967;BME280;51710;38.732;-121.358;2023-07-24T04:39:22;100475.19;;;29.95;34.85
64967;BME280;51710;38.732;-121.358;2023-07-24T04:41:48;100483.50;;;29.85;35.31
64967;BME280;51710;38.732;-121.358;2023-07-24T04:44:15;100486.34;;;29.75;35.30
64967;BME280;51710;38.732;-121.358;2023-07-24T04:46:41;100494.38;;;29.66;35.50
64967;BME280;51710;38.732;-121.358;2023-07-24T04:49:07;100495.81;;;29.59;35.58
64967;BME280;51710;38.732;-121.358;2023-07-24T04:51:33;100496.44;;;29.51;34.91
64967;BME280;51710;38.732;-121.358;2023-07-24T04:53:59;100513.53;;;29.38;35.42
64967;BME280;51710;38.732;-121.358;2023-07-24T04:56:26;100507.59;;;29.26;35.35
64967;BME280;51710;38.732;-121.358;2023-07-24T04:58:52;100500.28;;;29.16;35.45
64967;BME280;51710;38.732;-121.358;2023-07-24T05:01:18;100503.84;;;29.12;35.95
64967;BME280;51710;38.732;-121.358;2023-07-24T05:03:44;100505.50;;;29.08;35.45
64967;BME280;51710;38.732;-121.358;2023-07-24T05:06:11;100502.25;;;29.01;35.92
64967;BME280;51710;38.732;-121.358;2023-07-24T05:08:37;100496.00;;;28.90;35.92
64967;BME280;51710;38.732;-121.358;2023-07-24T05:11:03;100502.38;;;28.80;35.61
64967;BME280;51710;38.732;-121.358;2023-07-24T05:13:30;100504.88;;;28.72;36.13
64967;BME280;51710;38.732;-121.358;2023-07-24T05:15:56;100501.34;;;28.66;36.01
64967;BME280;51710;38.732;-121.358;2023-07-24T05:18:22;100504.69;;;28.58;36.27
64967;BME280;51710;38.732;-121.358;2023-07-24T05:20:49;100502.50;;;28.50;36.12
64967;BME280;51710;38.732;-121.358;2023-07-24T05:23:18;100508.25;;;28.44;35.66
64967;BME280;51710;38.732;-121.358;2023-07-24T05:25:45;100508.56;;;28.37;35.83
64967;BME280;51710;38.732;-121.358;2023-07-24T05:28:11;100517.38;;;28.29;35.63
64967;BME280;51710;38.732;-121.358;2023-07-24T05:30:37;100504.78;;;28.23;36.33
64967;BME280;51710;38.732;-121.358;2023-07-24T05:33:03;100514.13;;;28.17;36.04
64967;BME280;51710;38.732;-121.358;2023-07-24T05:35:30;100511.66;;;28.11;35.90
64967;BME280;51710;38.732;-121.358;2023-07-24T05:37:56;100510.31;;;28.03;36.12
64967;BME280;51710;38.732;-121.358;2023-07-24T05:40:22;100509.50;;;27.98;36.01
64967;BME280;51710;38.732;-121.358;2023-07-24T05:42:49;100509.78;;;27.91;36.10
64967;BME280;51710;38.732;-121.358;2023-07-24T05:45:15;100505.94;;;27.82;36.00
64967;BME280;51710;38.732;-121.358;2023-07-24T05:47:41;100505.38;;;27.80;36.25
64967;BME280;51710;38.732;-121.358;2023-07-24T05:50:08;100498.53;;;27.72;36.17
64967;BME280;51710;38.732;-121.358;2023-07-24T05:52:34;100514.97;;;27.67;36.32
64967;BME280;51710;38.732;-121.358;2023-07-24T05:55:00;100511.94;;;27.64;36.45
64967;BME280;51710;38.732;-121.358;2023-07-24T05:57:26;100508.13;;;27.60;36.32
64967;BME280;51710;38.732;-121.358;2023-07-24T05:59:53;100507.03;;;27.56;36.55
64967;BME280;51710;38.732;-121.358;2023-07-24T06:02:20;100516.88;;;27.52;36.65
64967;BME280;51710;38.732;-121.358;2023-07-24T06:04:46;100522.91;;;27.49;36.80
64967;BME280;51710;38.732;-121.358;2023-07-24T06:07:13;100525.66;;;27.49;36.83
64967;BME280;51710;38.732;-121.358;2023-07-24T06:09:39;100527.28;;;27.45;36.94
64967;BME280;51710;38.732;-121.358;2023-07-24T06:12:05;100529.47;;;27.43;37.04
64967;BME280;51710;38.732;-121.358;2023-07-24T06:14:32;100519.06;;;27.40;36.99
64967;BME280;51710;38.732;-121.358;2023-07-24T06:16:58;100524.00;;;27.33;36.99
64967;BME280;51710;38.732;-121.358;2023-07-24T06:19:24;100519.56;;;27.27;37.21
64967;BME280;51710;38.732;-121.358;2023-07-24T06:21:50;100526.97;;;27.21;37.28
64967;BME280;51710;38.732;-121.358;2023-07-24T06:24:17;100529.69;;;27.16;37.16
64967;BME280;51710;38.732;-121.358;2023-07-24T06:26:43;100538.69;;;27.12;37.54
64967;BME280;51710;38.732;-121.358;2023-07-24T06:29:10;100546.88;;;27.07;37.56
64967;BME280;51710;38.732;-121.358;2023-07-24T06:31:36;100552.88;;;26.99;37.61
64967;BME280;51710;38.732;-121.358;2023-07-24T06:34:03;100553.94;;;26.93;37.75
64967;BME280;51710;38.732;-121.358;2023-07-24T06:36:29;100559.69;;;26.86;37.65
64967;BME280;51710;38.732;-121.358;2023-07-24T06:38:55;100551.72;;;26.80;37.63
64967;BME280;51710;38.732;-121.358;2023-07-24T06:41:21;100556.63;;;26.73;37.77
64967;BME280;51710;38.732;-121.358;2023-07-24T06:43:49;100562.03;;;26.67;37.74
64967;BME280;51710;38.732;-121.358;2023-07-24T06:46:15;100560.91;;;26.58;38.14
64967;BME280;51710;38.732;-121.358;2023-07-24T06:48:41;100567.41;;;26.52;38.17
64967;BME280;51710;38.732;-121.358;2023-07-24T06:51:08;100566.25;;;26.43;38.22
64967;BME280;51710;38.732;-121.358;2023-07-24T06:53:34;100557.22;;;26.38;38.35
64967;BME280;51710;38.732;-121.358;2023-07-24T06:56:00;100565.13;;;26.34;38.42
64967;BME280;51710;38.732;-121.358;2023-07-24T06:58:27;100570.31;;;26.31;38.51
64967;BME280;51710;38.732;-121.358;2023-07-24T07:00:53;100561.28;;;26.30;38.69
64967;BME280;51710;38.732;-121.358;2023-07-24T07:03:20;100562.88;;;26.26;38.82
64967;BME280;51710;38.732;-121.358;2023-07-24T07:05:47;100571.06;;;26.21;38.55
64967;BME280;51710;38.732;-121.358;2023-07-24T07:08:13;100574.31;;;26.18;38.79
64967;BME280;51710;38.732;-121.358;2023-07-24T07:10:39;100578.66;;;26.14;38.93
64967;BME280;51710;38.732;-121.358;2023-07-24T07:13:05;100574.00;;;26.10;38.69
64967;BME280;51710;38.732;-121.358;2023-07-24T07:15:32;100578.88;;;26.08;39.04
64967;BME280;51710;38.732;-121.358;2023-07-24T07:17:58;100583.78;;;26.06;39.11
64967;BME280;51710;38.732;-121.358;2023-07-24T07:20:24;100579.66;;;26.03;39.00
64967;BME280;51710;38.732;-121.358;2023-07-24T07:22:50;100573.63;;;26.01;39.10
64967;BME280;51710;38.732;-121.358;2023-07-24T07:25:16;100574.69;;;26.00;38.90
64967;BME280;51710;38.732;-121.358;2023-07-24T07:27:43;100570.34;;;25.99;38.69
64967;BME280;51710;38.732;-121.358;2023-07-24T07:30:09;100573.63;;;26.01;39.01
64967;BME280;51710;38.732;-121.358;2023-07-24T07:32:36;100583.16;;;25.99;39.19
64967;BME280;51710;38.732;-121.358;2023-07-24T07:35:02;100582.28;;;25.93;38.78
64967;BME280;51710;38.732;-121.358;2023-07-24T07:37:29;100585.47;;;25.80;38.85
64967;BME280;51710;38.732;-121.358;2023-07-24T07:39:55;100582.09;;;25.68;39.23
64967;BME280;51710;38.732;-121.358;2023-07-24T07:42:21;100580.09;;;25.58;39.29
64967;BME280;51710;38.732;-121.358;2023-07-24T07:44:47;100579.19;;;25.53;39.49
64967;BME280;51710;38.732;-121.358;2023-07-24T07:47:14;100576.44;;;25.48;39.48
64967;BME280;51710;38.732;-121.358;2023-07-24T07:49:40;100587.88;;;25.45;39.86
64967;BME280;51710;38.732;-121.358;2023-07-24T07:52:07;100585.41;;;25.43;39.66
64967;BME280;51710;38.732;-121.358;2023-07-24T07:54:33;100584.00;;;25.41;39.96
64967;BME280;51710;38.732;-121.358;2023-07-24T07:57:00;100594.34;;;25.39;39.82
64967;BME280;51710;38.732;-121.358;2023-07-24T07:59:26;100592.63;;;25.33;39.52
64967;BME280;51710;38.732;-121.358;2023-07-24T08:01:55;100588.13;;;25.22;40.17
64967;BME280;51710;38.732;-121.358;2023-07-24T08:04:21;100594.53;;;25.11;40.14
64967;BME280;51710;38.732;-121.358;2023-07-24T08:06:48;100583.84;;;25.04;40.27
64967;BME280;51710;38.732;-121.358;2023-07-24T08:09:14;100582.16;;;24.98;40.50
64967;BME280;51710;38.732;-121.358;2023-07-24T08:11:40;100581.84;;;24.95;40.66
64967;BME280;51710;38.732;-121.358;2023-07-24T08:14:07;100584.25;;;24.91;40.80
64967;BME280;51710;38.732;-121.358;2023-07-24T08:16:33;100591.28;;;24.87;41.01
64967;BME280;51710;38.732;-121.358;2023-07-24T08:18:59;100590.97;;;24.84;41.06
64967;BME280;51710;38.732;-121.358;2023-07-24T08:21:25;100593.63;;;24.79;41.09
64967;BME280;51710;38.732;-121.358;2023-07-24T08:23:52;100603.88;;;24.72;41.05
64967;BME280;51710;38.732;-121.358;2023-07-24T08:26:18;100608.16;;;24.68;41.39
64967;BME280;51710;38.732;-121.358;2023-07-24T08:28:44;100601.88;;;24.67;41.32
64967;BME280;51710;38.732;-121.358;2023-07-24T08:31:10;100605.63;;;24.61;41.71
64967;BME280;51710;38.732;-121.358;2023-07-24T08:33:37;100606.34;;;24.57;41.48
64967;BME280;51710;38.732;-121.358;2023-07-24T08:36:05;100607.13;;;24.52;41.83
64967;BME280;51710;38.732;-121.358;2023-07-24T08:38:32;100602.44;;;24.47;41.75
64967;BME280;51710;38.732;-121.358;2023-07-24T08:41:08;100598.28;;;24.45;42.36
64967;BME280;51710;38.732;-121.358;2023-07-24T08:43:36;100596.34;;;24.40;41.87
64967;BME280;51710;38.732;-121.358;2023-07-24T08:46:03;100605.00;;;24.37;42.33
64967;BME280;51710;38.732;-121.358;2023-07-24T08:48:34;100604.34;;;24.30;42.18
64967;BME280;51710;38.732;-121.358;2023-07-24T08:51:14;100603.59;;;24.18;42.52
64967;BME280;51710;38.732;-121.358;2023-07-24T08:53:50;100605.94;;;24.10;42.66
64967;BME280;51710;38.732;-121.358;2023-07-24T08:56:17;100606.94;;;24.04;42.85
64967;BME280;51710;38.732;-121.358;2023-07-24T08:58:43;100604.94;;;23.99;43.00
64967;BME280;51710;38.732;-121.358;2023-07-24T09:01:09;100606.25;;;23.97;43.27
64967;BME280;51710;38.732;-121.358;2023-07-24T09:03:36;100610.38;;;23.99;43.52
64967;BME280;51710;38.732;-121.358;2023-07-24T09:06:03;100615.81;;;23.99;43.22
64967;BME280;51710;38.732;-121.358;2023-07-24T09:08:39;100614.66;;;23.95;43.59
64967;BME280;51710;38.732;-121.358;2023-07-24T09:11:06;100607.72;;;23.88;43.66
64967;BME280;51710;38.732;-121.358;2023-07-24T09:13:36;100615.38;;;23.74;43.77
64967;BME280;51710;38.732;-121.358;2023-07-24T09:16:03;100616.59;;;23.67;43.86
64967;BME280;51710;38.732;-121.358;2023-07-24T09:18:42;100615.69;;;23.61;43.99
64967;BME280;51710;38.732;-121.358;2023-07-24T09:21:09;100623.25;;;23.59;44.05
64967;BME280;51710;38.732;-121.358;2023-07-24T09:23:38;100625.09;;;23.54;44.35
64967;BME280;51710;38.732;-121.358;2023-07-24T09:26:09;100619.19;;;23.45;44.57
64967;BME280;51710;38.732;-121.358;2023-07-24T09:28:35;100619.00;;;23.35;44.88
64967;BME280;51710;38.732;-121.358;2023-07-24T09:31:02;100613.34;;;23.25;45.18
64967;BME280;51710;38.732;-121.358;2023-07-24T09:33:37;100616.56;;;23.22;45.32
64967;BME280;51710;38.732;-121.358;2023-07-24T09:36:05;100615.47;;;23.23;45.40
64967;BME280;51710;38.732;-121.358;2023-07-24T09:38:33;100625.19;;;23.19;45.56
64967;BME280;51710;38.732;-121.358;2023-07-24T09:41:01;100626.16;;;23.13;45.86
64967;BME280;51710;38.732;-121.358;2023-07-24T09:43:29;100628.78;;;23.08;45.89
64967;BME280;51710;38.732;-121.358;2023-07-24T09:45:56;100633.19;;;22.97;46.06
64967;BME280;51710;38.732;-121.358;2023-07-24T09:48:25;100638.97;;;22.89;46.40
64967;BME280;51710;38.732;-121.358;2023-07-24T09:50:56;100639.69;;;22.85;46.49
64967;BME280;51710;38.732;-121.358;2023-07-24T09:56:09;100638.75;;;22.79;46.56
64967;BME280;51710;38.732;-121.358;2023-07-24T09:58:37;100642.53;;;22.78;46.86
64967;BME280;51710;38.732;-121.358;2023-07-24T10:01:07;100631.44;;;22.80;46.59
64967;BME280;51710;38.732;-121.358;2023-07-24T10:03:39;100639.00;;;22.78;46.96
64967;BME280;51710;38.732;-121.358;2023-07-24T10:06:05;100634.19;;;22.68;47.21
64967;BME280;51710;38.732;-121.358;2023-07-24T10:08:36;100637.97;;;22.56;47.15
64967;BME280;51710;38.732;-121.358;2023-07-24T10:11:03;100644.78;;;22.47;47.29
64967;BME280;51710;38.732;-121.358;2023-07-24T10:13:30;100642.44;;;22.39;47.51
64967;BME280;51710;38.732;-121.358;2023-07-24T10:15:57;100644.66;;;22.30;47.78
64967;BME280;51710;38.732;-121.358;2023-07-24T10:18:28;100639.34;;;22.23;48.05
64967;BME280;51710;38.732;-121.358;2023-07-24T10:21:06;100645.00;;;22.22;48.25
64967;BME280;51710;38.732;-121.358;2023-07-24T10:23:37;100640.66;;;22.21;48.26
64967;BME280;51710;38.732;-121.358;2023-07-24T10:26:07;100643.47;;;22.14;48.49
64967;BME280;51710;38.732;-121.358;2023-07-24T10:28:35;100650.88;;;22.07;48.82
64967;BME280;51710;38.732;-121.358;2023-07-24T10:31:28;100650.16;;;22.00;48.81
64967;BME280;51710;38.732;-121.358;2023-07-24T10:33:54;100654.66;;;21.95;48.83
64967;BME280;51710;38.732;-121.358;2023-07-24T10:36:22;100655.94;;;21.92;49.27
64967;BME280;51710;38.732;-121.358;2023-07-24T10:38:55;100655.56;;;21.89;49.46
64967;BME280;51710;38.732;-121.358;2023-07-24T10:41:21;100655.69;;;21.82;49.53
64967;BME280;51710;38.732;-121.358;2023-07-24T10:43:52;100659.75;;;21.73;49.88
64967;BME280;51710;38.732;-121.358;2023-07-24T10:46:35;100671.31;;;21.69;50.19
64967;BME280;51710;38.732;-121.358;2023-07-24T10:49:02;100668.78;;;21.67;50.04
64967;BME280;51710;38.732;-121.358;2023-07-24T10:51:32;100675.53;;;21.65;50.47
64967;BME280;51710;38.732;-121.358;2023-07-24T10:54:01;100668.53;;;21.57;50.56
64967;BME280;51710;38.732;-121.358;2023-07-24T10:56:28;100675.78;;;21.45;50.69
64967;BME280;51710;38.732;-121.358;2023-07-24T10:58:55;100676.72;;;21.39;50.93
64967;BME280;51710;38.732;-121.358;2023-07-24T11:01:21;100673.78;;;21.41;51.05
64967;BME280;51710;38.732;-121.358;2023-07-24T11:03:50;100674.16;;;21.44;51.12
64967;BME280;51710;38.732;-121.358;2023-07-24T11:06:18;100687.69;;;21.44;51.29
64967;BME280;51710;38.732;-121.358;2023-07-24T11:08:55;100684.53;;;21.47;51.38
64967;BME280;51710;38.732;-121.358;2023-07-24T11:11:31;100688.31;;;21.46;51.16
64967;BME280;51710;38.732;-121.358;2023-07-24T11:13:58;100691.69;;;21.42;51.42
64967;BME280;51710;38.732;-121.358;2023-07-24T11:16:25;100695.47;;;21.41;51.30
64967;BME280;51710;38.732;-121.358;2023-07-24T11:18:52;100692.50;;;21.42;51.64
64967;BME280;51710;38.732;-121.358;2023-07-24T11:21:18;100693.78;;;21.40;51.63
64967;BME280;51710;38.732;-121.358;2023-07-24T11:23:52;100698.84;;;21.36;51.83
64967;BME280;51710;38.732;-121.358;2023-07-24T11:26:23;100700.78;;;21.29;51.99
64967;BME280;51710;38.732;-121.358;2023-07-24T11:28:51;100695.84;;;21.26;52.03
64967;BME280;51710;38.732;-121.358;2023-07-24T11:31:17;100699.00;;;21.23;52.19
64967;BME280;51710;38.732;-121.358;2023-07-24T11:33:50;100698.25;;;21.16;52.11
64967;BME280;51710;38.732;-121.358;2023-07-24T11:36:17;100699.63;;;21.07;52.53
64967;BME280;51710;38.732;-121.358;2023-07-24T11:38:47;100706.75;;;21.01;52.62
64967;BME280;51710;38.732;-121.358;2023-07-24T11:41:15;100695.09;;;21.01;52.76
64967;BME280;51710;38.732;-121.358;2023-07-24T11:43:49;100698.53;;;20.90;53.09
64967;BME280;51710;38.732;-121.358;2023-07-24T11:46:23;100708.59;;;20.83;53.25
64967;BME280;51710;38.732;-121.358;2023-07-24T11:48:50;100713.25;;;20.76;53.46
64967;BME280;51710;38.732;-121.358;2023-07-24T11:51:19;100720.16;;;20.72;53.56
64967;BME280;51710;38.732;-121.358;2023-07-24T11:53:46;100719.31;;;20.71;53.88
64967;BME280;51710;38.732;-121.358;2023-07-24T11:56:14;100721.22;;;20.71;53.82
64967;BME280;51710;38.732;-121.358;2023-07-24T11:58:41;100730.38;;;20.70;53.92
64967;BME280;51710;38.732;-121.358;2023-07-24T12:01:07;100733.31;;;20.68;54.06
64967;BME280;51710;38.732;-121.358;2023-07-24T12:03:33;100734.16;;;20.69;54.14
64967;BME280;51710;38.732;-121.358;2023-07-24T12:06:00;100730.97;;;20.72;54.40
64967;BME280;51710;38.732;-121.358;2023-07-24T12:08:32;100731.59;;;20.74;53.99
64967;BME280;51710;38.732;-121.358;2023-07-24T12:10:59;100736.56;;;20.77;54.00
64967;BME280;51710;38.732;-121.358;2023-07-24T12:13:26;100737.16;;;20.79;54.06
64967;BME280;51710;38.732;-121.358;2023-07-24T12:15:53;100748.00;;;20.79;53.96
64967;BME280;51710;38.732;-121.358;2023-07-24T12:18:19;100744.25;;;20.80;53.87
64967;BME280;51710;38.732;-121.358;2023-07-24T12:20:45;100738.59;;;20.81;54.15
64967;BME280;51710;38.732;-121.358;2023-07-24T12:23:15;100740.47;;;20.81;54.01
64967;BME280;51710;38.732;-121.358;2023-07-24T12:25:42;100752.75;;;20.83;54.01